Time;durP1;ratioP1;P1;durP2;ratioP2;P2;SDS_P1;SDS_P2;PMS_P1;PMS_P2;Temp;Humidity;BMP_temperature;BMP_pressure;BME280_temperature;BME280_humidity;BME280_pressure;Samples;Min_cycle;Max_cycle;Signal;HPM_P1;HPM_P2
2021/04/19 00:00:55;;;;;;;18.15;16.80;;;;;;;5.20;78.00;100422.91;10408652;28;20052;-67
2021/04/19 00:05:57;;;;;;;21.35;19.55;;;;;;;4.99;77.88;100409.06;10425939;28;20033;-67
2021/04/19 00:10:59;;;;;;;52.45;23.60;;;;;;;4.77;78.44;100421.25;10424639;28;20085;-67
2021/04/19 00:16:00;;;;;;;28.05;23.20;;;;;;;4.91;78.32;100416.03;10407263;28;20149;-66
2021/04/19 00:21:02;;;;;;;31.40;23.83;;;;;;;4.73;78.53;100421.28;10424780;28;20461;-67
2021/04/19 00:26:04;;;;;;;91.90;21.40;;;;;;;5.19;77.86;100410.75;10424705;28;20061;-67
2021/04/19 00:31:06;;;;;;;19.75;18.05;;;;;;;5.00;77.17;100407.31;10406356;28;20100;-66
2021/04/19 00:36:09;;;;;;;20.65;18.88;;;;;;;4.63;78.07;100402.19;10424549;28;20041;-66
2021/04/19 00:41:12;;;;;;;20.25;18.55;;;;;;;4.57;78.44;100397.00;10425090;28;20045;-67
2021/04/19 00:46:14;;;;;;;21.20;19.50;;;;;;;4.48;78.18;100395.28;10408354;28;20069;-66
2021/04/19 00:51:15;;;;;;;20.65;19.00;;;;;;;4.51;78.33;100392.66;10424649;28;20049;-68
2021/04/19 00:56:17;;;;;;;22.65;20.58;;;;;;;4.43;78.94;100402.25;10423546;28;20129;-68
2021/04/19 01:01:18;;;;;;;16.42;15.23;;;;;;;4.54;78.26;100404.81;10422822;28;20411;-66
2021/04/19 01:06:20;;;;;;;18.25;16.85;;;;;;;4.54;78.47;100410.03;10424022;28;20091;-67
2021/04/19 01:11:21;;;;;;;16.88;15.57;;;;;;;4.42;78.81;100418.69;10422460;28;20076;-67
2021/04/19 01:16:22;;;;;;;18.27;16.40;;;;;;;4.68;78.36;100418.69;10423059;28;20121;-67
2021/04/19 01:21:24;;;;;;;17.52;16.23;;;;;;;4.55;77.10;100422.16;10423451;28;20034;-67
2021/04/19 01:26:27;;;;;;;20.20;17.73;;;;;;;4.63;77.83;100430.84;10405923;28;20056;-68
2021/04/19 01:31:32;;;;;;;18.25;16.40;;;;;;;4.83;77.48;100437.78;10423866;28;20514;-66
2021/04/19 01:36:39;;;;;;;20.33;18.48;;;;;;;4.75;77.76;100437.78;10406106;28;20045;-66
2021/04/19 01:41:45;;;;;;;22.10;19.75;;;;;;;4.81;77.92;100449.03;10403005;28;20049;-66
2021/04/19 01:46:48;;;;;;;39.40;19.23;;;;;;;4.84;78.00;100439.50;10402787;28;20045;-67
2021/04/19 01:51:50;;;;;;;21.05;19.15;;;;;;;4.73;78.53;100444.72;10420051;28;20080;-68
2021/04/19 01:56:51;;;;;;;30.52;21.05;;;;;;;4.85;79.16;100447.31;10420295;28;20041;-68
2021/04/19 02:02:06;;;;;;;24.15;21.48;;;;;;;5.03;78.66;100451.59;10419866;28;20056;-67
2021/04/19 02:07:19;;;;;;;46.78;22.85;;;;;;;5.06;78.18;100451.59;10401678;28;20119;-67
2021/04/19 02:12:43;;;;;;;57.50;26.20;;;;;;;5.03;78.74;100449.88;10403102;28;20048;-67
2021/04/19 02:18:10;;;;;;;28.33;24.35;;;;;;;5.01;78.93;100445.53;10421042;28;20126;-67
2021/04/19 02:23:35;;;;;;;45.75;28.35;;;;;;;5.16;78.71;100429.84;10419290;28;20045;-66
2021/04/19 02:28:44;;;;;;;37.38;27.60;;;;;;;4.80;79.33;100436.03;10403439;28;20041;-66
2021/04/19 02:33:53;;;;;;;40.30;29.10;;;;;;;4.62;79.92;100431.72;10419758;28;20444;-66
2021/04/19 02:38:58;;;;;;;47.88;30.67;;;;;;;4.69;80.24;100430.84;10419314;28;20053;-66
2021/04/19 02:44:00;;;;;;;40.67;28.40;;;;;;;4.80;79.78;100426.47;10419498;28;20183;-66
2021/04/19 02:49:29;;;;;;;38.33;27.60;;;;;;;4.98;79.18;100432.50;10382173;28;20061;-67
2021/04/19 02:54:32;;;;;;;33.25;27.73;;;;;;;4.91;79.35;100438.59;10419018;28;20364;-67
2021/04/19 02:59:34;;;;;;;32.05;26.17;;;;;;;4.96;79.03;100427.31;10402869;28;20132;-66
2021/04/19 03:04:39;;;;;;;33.15;27.27;;;;;;;4.98;78.71;100427.31;10419650;28;20473;-67
2021/04/19 03:09:54;;;;;;;26.35;23.85;;;;;;;5.00;77.91;100416.03;10420223;28;20046;-66
2021/04/19 03:15:07;;;;;;;35.03;26.30;;;;;;;4.92;78.14;100419.53;10427269;28;20128;-67
2021/04/19 03:20:15;;;;;;;37.20;26.15;;;;;;;4.93;78.15;100432.53;10410895;28;20076;-67
2021/04/19 03:25:32;;;;;;;33.08;24.38;;;;;;;5.00;77.81;100430.75;10411432;28;20084;-66
2021/04/19 03:30:34;;;;;;;68.07;34.08;;;;;;;4.72;79.33;100438.63;10428232;28;20070;-67
2021/04/19 03:35:46;;;;;;;44.55;28.42;;;;;;;5.10;78.78;100432.50;10409908;28;20393;-67
2021/04/19 03:40:51;;;;;;;42.15;27.75;;;;;;;4.93;78.51;100440.34;10409847;28;20140;-66
2021/04/19 03:45:58;;;;;;;;;;;;;;;4.92;78.66;100445.56;10409358;28;20050;-66
2021/04/19 03:51:04;;;;;;;51.40;27.95;;;;;;;5.11;78.51;100443.78;10427163;28;20015;-68
2021/04/19 03:56:12;;;;;;;39.88;26.38;;;;;;;5.06;78.70;100447.25;10392448;28;20046;-67
2021/04/19 04:01:36;;;;;;;35.40;25.98;;;;;;;5.09;78.64;100443.78;10408380;28;20049;-66
2021/04/19 04:06:41;;;;;;;52.60;30.33;;;;;;;5.25;78.14;100436.78;10407775;28;20045;-66
2021/04/19 04:11:43;;;;;;;40.88;26.00;;;;;;;5.08;78.55;100447.25;10426200;28;20041;-68
2021/04/19 04:16:58;;;;;;;49.40;28.98;;;;;;;4.99;78.64;100450.75;10409499;28;20484;-67
2021/04/19 04:22:17;;;;;;;40.10;27.00;;;;;;;5.00;78.83;100457.72;10406008;28;20060;-67
2021/04/19 04:27:21;;;;;;;56.67;30.92;;;;;;;5.14;78.74;100449.84;10406681;28;20126;-67
2021/04/19 04:32:23;;;;;;;49.97;29.90;;;;;;;5.23;78.54;100444.59;10407800;28;20168;-68
2021/04/19 04:37:34;;;;;;;41.10;26.20;;;;;;;5.26;78.06;100436.75;10406530;28;20079;-68
2021/04/19 04:42:50;;;;;;;47.38;30.85;;;;;;;5.25;77.90;100441.97;10391529;28;20518;-67
2021/04/19 04:48:07;;;;;;;50.08;30.23;;;;;;;5.28;78.07;100437.63;10425212;28;20033;-67
2021/04/19 04:53:16;;;;;;;44.58;28.48;;;;;;;5.43;77.93;100438.44;10423293;28;20045;-67
2021/04/19 04:58:18;;;;;;;44.70;29.15;;;;;;;5.64;77.42;100435.72;10423824;28;20045;-70
2021/04/19 05:03:20;;;;;;;58.63;36.85;;;;;;;5.67;77.29;100450.50;10422329;28;20557;-69
2021/04/19 05:08:25;;;;;;;42.47;27.83;;;;;;;5.83;76.31;100450.38;10405150;28;20060;-69
2021/04/19 05:13:26;;;;;;;43.63;26.90;;;;;;;5.83;76.34;100444.31;10404105;28;20046;-68
2021/04/19 05:18:28;;;;;;;40.95;26.85;;;;;;;5.83;76.11;100449.53;10421526;28;20049;-68
2021/04/19 05:23:29;;;;;;;35.33;24.92;;;;;;;5.65;76.93;100447.03;10403885;28;20045;-68
2021/04/19 05:28:33;;;;;;;27.00;23.60;;;;;;;5.70;76.67;100433.06;10404302;28;20103;-67
2021/04/19 05:33:36;;;;;;;26.13;23.48;;;;;;;5.79;76.15;100434.75;10420733;28;20069;-68
2021/04/19 05:38:41;;;;;;;28.38;25.55;;;;;;;5.81;75.98;100449.56;10421649;28;20073;-68
2021/04/19 05:43:45;;;;;;;31.80;26.27;;;;;;;5.79;76.13;100448.69;10421168;28;20064;-69
2021/04/19 05:48:46;;;;;;;41.60;30.02;;;;;;;5.91;76.33;100442.53;10421742;28;20056;-70
2021/04/19 05:53:51;;;;;;;51.58;32.58;;;;;;;5.90;76.24;100450.38;10402566;28;20076;-69
2021/04/19 05:59:02;;;;;;;46.55;30.30;;;;;;;6.14;75.46;100446.75;10402860;28;20060;-70
2021/04/19 06:04:13;;;;;;;40.10;28.73;;;;;;;6.03;75.70;100458.16;10421672;28;20483;-69
2021/04/19 06:09:23;;;;;;;31.38;27.13;;;;;;;6.40;74.64;100460.47;10421764;28;20121;-69
2021/04/19 06:14:50;;;;;;;36.88;29.20;;;;;;;6.56;74.33;100464.72;10411551;28;20077;-68
2021/04/19 06:19:53;;;;;;;38.08;30.48;;;;;;;6.72;74.06;100462.81;10403395;28;20038;-67
2021/04/19 06:24:54;;;;;;;31.92;28.45;;;;;;;6.78;74.75;100462.78;10420158;28;20080;-68
2021/04/19 06:29:55;;;;;;;34.03;29.38;;;;;;;7.74;72.30;100446.84;10419916;28;20472;-69
2021/04/19 06:34:57;;;;;;;31.77;28.40;;;;;;;8.15;70.04;100442.78;10421367;28;20450;-68
2021/04/19 06:39:58;;;;;;;38.55;31.80;;;;;;;7.82;70.94;100437.13;10402278;28;20518;-68
2021/04/19 06:45:01;;;;;;;32.83;29.50;;;;;;;8.43;70.13;100432.75;10402589;28;20048;-68
2021/04/19 06:50:06;;;;;;;27.67;24.85;;;;;;;9.07;67.70;100435.09;10418116;28;20045;-67
2021/04/19 06:55:08;;;;;;;27.88;25.23;;;;;;;9.12;68.47;100439.38;10400885;28;20050;-69
2021/04/19 07:00:13;;;;;;;24.95;22.85;;;;;;;8.71;69.28;100447.09;10417573;28;20072;-67
2021/04/19 07:05:19;;;;;;;27.25;24.92;;;;;;;8.69;70.40;100440.16;10417953;28;20052;-68
2021/04/19 07:10:20;;;;;;;26.30;24.20;;;;;;;8.81;68.46;100438.19;10417870;28;20045;-68
2021/04/19 07:15:23;;;;;;;29.83;27.05;;;;;;;8.39;71.32;100441.56;10401482;28;20045;-68
2021/04/19 07:20:24;;;;;;;30.63;26.55;;;;;;;8.52;70.96;100430.84;10419117;28;20057;-68
2021/04/19 07:25:26;;;;;;;28.50;25.55;;;;;;;8.51;70.72;100436.13;10419137;28;20103;-69
2021/04/19 07:30:27;;;;;;;24.98;23.05;;;;;;;8.69;70.18;100441.03;10459171;28;20382;-68
2021/04/19 07:35:33;;;;;;;27.67;25.40;;;;;;;8.61;70.44;100436.81;10458525;28;20057;-67
2021/04/19 07:40:43;;;;;;;24.27;22.33;;;;;;;9.31;69.03;100438.97;10440225;28;20056;-69
2021/04/19 07:46:07;;;;;;;23.15;21.33;;;;;;;8.97;69.54;100448.38;10459281;28;20048;-68
2021/04/19 07:51:29;;;;;;;25.50;23.35;;;;;;;8.87;69.98;100446.84;10441902;28;20041;-68
2021/04/19 07:56:30;;;;;;;24.80;23.00;;;;;;;9.10;68.93;100449.88;10442985;28;20121;-68
2021/04/19 08:02:00;;;;;;;29.95;27.20;;;;;;;9.30;68.59;100446.91;10466368;28;20052;-68
2021/04/19 08:07:02;;;;;;;30.90;27.88;;;;;;;9.35;68.22;100450.28;10465509;28;20123;-68
2021/04/19 08:12:07;;;;;;;32.65;28.88;;;;;;;9.26;68.83;100451.34;10464889;28;20095;-68
2021/04/19 08:17:12;;;;;;;30.60;27.58;;;;;;;9.65;68.50;100445.28;10432915;28;20059;-69
2021/04/19 08:22:19;;;;;;;32.45;29.55;;;;;;;10.13;67.12;100448.56;10464873;28;20498;-69
2021/04/19 08:27:24;;;;;;;31.65;28.70;;;;;;;10.12;66.25;100444.22;10447318;28;20041;-69
2021/04/19 08:32:29;;;;;;;29.42;26.90;;;;;;;10.39;65.09;100447.13;10447554;28;20053;-69
2021/04/19 08:37:31;;;;;;;26.48;24.48;;;;;;;11.21;63.87;100446.75;10464636;28;20052;-69
2021/04/19 08:42:34;;;;;;;26.27;24.23;;;;;;;11.81;61.48;100445.84;10447447;28;20144;-69
2021/04/19 08:47:36;;;;;;;25.70;23.33;;;;;;;11.83;60.21;100437.06;10463698;28;20041;-69
2021/04/19 08:52:38;;;;;;;24.10;22.20;;;;;;;12.35;58.36;100440.69;10464508;28;20438;-69
2021/04/19 08:57:42;;;;;;;24.02;22.17;;;;;;;12.24;57.16;100437.53;10447619;28;20111;-70
2021/04/19 09:02:44;;;;;;;24.83;22.58;;;;;;;12.00;58.13;100433.91;10465665;28;20049;-68
2021/04/19 09:07:49;;;;;;;24.58;22.20;;;;;;;12.52;55.97;100436.59;10463742;28;20044;-69
2021/04/19 09:12:50;;;;;;;23.08;21.30;;;;;;;12.29;57.00;100434.72;10446085;28;20487;-69
2021/04/19 09:18:06;;;;;;;21.58;20.05;;;;;;;12.67;56.15;100430.84;10462247;28;20049;-69
2021/04/19 09:23:28;;;;;;;22.25;20.52;;;;;;;12.19;58.56;100428.03;10463824;28;20041;-69
2021/04/19 09:28:38;;;;;;;22.05;20.38;;;;;;;12.36;58.46;100425.72;10463390;28;20041;-69
2021/04/19 09:33:40;;;;;;;23.58;21.73;;;;;;;12.13;59.00;100429.13;10461338;28;20483;-69
2021/04/19 09:38:49;;;;;;;23.30;21.60;;;;;;;12.19;59.45;100414.88;10444585;28;20044;-69
2021/04/19 09:43:55;;;;;;;24.48;22.23;;;;;;;11.89;59.85;100414.06;10447090;28;20055;-68
2021/04/19 09:49:02;;;;;;;16.30;15.05;;;;;;;12.22;59.76;100407.72;10447569;28;20037;-69
2021/04/19 09:54:07;;;;;;;24.73;22.58;;;;;;;12.71;57.47;100395.53;10429979;28;20041;-69
2021/04/19 09:59:15;;;;;;;24.23;22.42;;;;;;;12.79;57.49;100377.66;10456787;28;20048;-68
2021/04/19 10:04:17;;;;;;;23.73;21.63;;;;;;;13.03;56.41;100377.69;10406725;28;20042;-68
2021/04/19 10:09:25;;;;;;;21.98;20.17;;;;;;;13.11;56.97;100380.91;10425808;28;20406;-68
2021/04/19 10:14:33;;;;;;;22.33;20.52;;;;;;;14.23;52.08;100380.09;10447102;28;20040;-68
2021/04/19 10:19:34;;;;;;;21.10;19.40;;;;;;;15.08;49.84;100374.69;10462724;28;20550;-70
2021/04/19 10:24:57;;;;;;;21.02;19.23;;;;;;;14.64;51.50;100367.78;10444710;28;20045;-69
2021/04/19 10:30:16;;;;;;;17.65;16.17;;;;;;;15.24;48.63;100354.53;10445237;28;20049;-69
2021/04/19 10:35:42;;;;;;;16.73;15.50;;;;;;;16.08;47.15;100353.22;10462426;28;20041;-70
2021/04/19 10:40:58;;;;;;;17.88;16.58;;;;;;;15.45;47.51;100341.22;10463701;28;20060;-69
2021/04/19 10:46:00;;;;;;;17.13;15.60;;;;;;;16.41;45.01;100344.47;10447307;28;20056;-70
2021/04/19 10:51:17;;;;;;;20.95;19.38;;;;;;;14.61;49.75;100344.13;10463432;28;20111;-70
2021/04/19 10:56:24;;;;;;;18.33;17.02;;;;;;;14.80;49.58;100343.31;10462163;28;20487;-70
2021/04/19 11:01:30;;;;;;;17.65;16.33;;;;;;;14.61;49.45;100349.41;10460507;28;20063;-69
2021/04/19 11:06:34;;;;;;;18.42;17.02;;;;;;;14.35;51.10;100341.69;10460414;28;20041;-71
2021/04/19 11:11:35;;;;;;;19.10;17.63;;;;;;;14.03;48.90;100343.03;10458914;28;20419;-70
2021/04/19 11:16:58;;;;;;;16.35;15.05;;;;;;;14.03;49.08;100335.09;10461739;28;20490;-68
2021/04/19 11:22:16;;;;;;;17.48;16.17;;;;;;;13.61;49.62;100343.84;10445946;28;20495;-72
2021/04/19 11:27:35;;;;;;;18.00;16.53;;;;;;;13.49;51.25;100342.53;10455784;28;20042;-70
2021/04/19 11:32:37;;;;;;;18.52;17.13;;;;;;;13.45;50.28;100332.13;10423683;28;20411;-70
2021/04/19 11:37:39;;;;;;;20.42;18.83;;;;;;;13.19;52.14;100333.09;10443495;28;20087;-69
2021/04/19 11:42:41;;;;;;;18.35;16.98;;;;;;;13.26;53.00;100330.22;10470229;28;20549;-69
2021/04/19 11:47:42;;;;;;;20.10;18.55;;;;;;;13.46;51.98;100329.47;10469341;28;20045;-69
2021/04/19 11:52:48;;;;;;;19.85;18.45;;;;;;;13.48;51.46;100327.59;10468890;28;20396;-70
2021/04/19 11:57:49;;;;;;;20.08;18.45;;;;;;;13.73;51.02;100316.09;10429290;28;20041;-70
2021/04/19 12:02:50;;;;;;;20.65;18.92;;;;;;;14.35;51.39;100315.25;10395196;28;20049;-71
2021/04/19 12:07:52;;;;;;;19.42;18.02;;;;;;;15.23;47.67;100312.22;10411176;28;20132;-70
2021/04/19 12:12:53;;;;;;;19.98;18.40;;;;;;;15.21;48.73;100314.09;10408320;28;20048;-70
2021/04/19 12:17:55;;;;;;;19.98;18.17;;;;;;;15.53;46.85;100305.47;10425478;28;20104;-70
2021/04/19 12:22:56;;;;;;;19.15;17.85;;;;;;;15.36;47.40;100306.31;10427227;28;20044;-70
2021/04/19 12:27:59;;;;;;;16.98;15.77;;;;;;;15.25;47.40;100300.63;10435840;28;20503;-70
2021/04/19 12:33:00;;;;;;;18.88;17.48;;;;;;;14.94;48.38;100297.69;10449597;28;20049;-70
2021/04/19 12:38:01;;;;;;;18.60;17.25;;;;;;;15.04;45.71;100294.53;10449542;28;20053;-70
2021/04/19 12:43:03;;;;;;;20.02;18.40;;;;;;;14.58;48.25;100290.47;10467566;28;20071;-70
2021/04/19 12:48:07;;;;;;;18.00;16.50;;;;;;;14.58;48.08;100291.34;10467114;28;20045;-70
2021/04/19 12:53:09;;;;;;;18.27;16.88;;;;;;;14.67;48.80;100286.56;10468262;28;20045;-70
2021/04/19 12:58:13;;;;;;;17.88;16.60;;;;;;;14.20;47.64;100285.03;10467602;28;20052;-70
2021/04/19 13:03:14;;;;;;;18.48;16.90;;;;;;;14.16;48.11;100279.94;10449026;28;20045;-69
2021/04/19 13:08:16;;;;;;;20.80;19.30;;;;;;;14.01;50.14;100286.72;10467369;28;20049;-70
2021/04/19 13:13:17;;;;;;;22.17;20.40;;;;;;;13.97;49.58;100271.91;10448644;28;20045;-70
2021/04/19 13:18:18;;;;;;;21.35;19.75;;;;;;;14.52;48.96;100270.44;10466190;28;20582;-71
2021/04/19 13:23:20;;;;;;;19.55;18.15;;;;;;;15.04;48.15;100273.38;10450567;28;20491;-70
2021/04/19 13:28:21;;;;;;;23.73;21.70;;;;;;;14.02;49.89;100269.94;10459195;28;20115;-69
2021/04/19 13:33:22;;;;;;;21.88;20.15;;;;;;;14.47;49.67;100255.66;10466224;28;20133;-70
2021/04/19 13:38:25;;;;;;;23.20;21.40;;;;;;;14.96;48.12;100256.13;10441087;28;20080;-70
2021/04/19 13:43:26;;;;;;;21.63;19.92;;;;;;;14.51;48.14;100250.19;10428432;28;20041;-70
2021/04/19 13:48:27;;;;;;;20.27;18.67;;;;;;;14.56;47.52;100250.84;10479272;28;20048;-69
2021/04/19 13:53:29;;;;;;;21.20;19.40;;;;;;;14.77;45.93;100245.53;10467751;28;20112;-70
2021/04/19 13:58:31;;;;;;;20.63;19.10;;;;;;;14.60;46.49;100238.34;10457344;28;20045;-70
2021/04/19 14:03:32;;;;;;;20.83;19.33;;;;;;;14.47;46.40;100232.72;10471697;28;20049;-70
2021/04/19 14:08:34;;;;;;;24.83;19.77;;;;;;;14.51;48.09;100230.81;10466607;28;20064;-70
2021/04/19 14:13:36;;;;;;;19.23;17.63;;;;;;;14.58;46.56;100224.34;10468879;28;20435;-69
2021/04/19 14:18:38;;;;;;;20.25;18.77;;;;;;;14.80;45.96;100221.56;10465353;28;20049;-70
2021/04/19 14:23:41;;;;;;;19.40;18.00;;;;;;;14.46;46.85;100212.47;10428857;28;20053;-70
2021/04/19 14:28:42;;;;;;;19.23;17.35;;;;;;;14.86;45.64;100213.34;10462552;28;20049;-71
2021/04/19 14:33:44;;;;;;;21.45;19.85;;;;;;;14.48;46.79;100208.03;10463134;28;20045;-71
2021/04/19 14:38:46;;;;;;;19.75;18.35;;;;;;;14.72;46.24;100211.34;10464031;28;20057;-71
2021/04/19 14:43:48;;;;;;;21.27;19.77;;;;;;;14.47;46.63;100213.34;10462962;28;20388;-69
2021/04/19 14:48:49;;;;;;;23.10;21.38;;;;;;;14.46;49.26;100207.19;10444268;28;20060;-70
2021/04/19 14:53:59;;;;;;;24.52;22.73;;;;;;;13.97;49.84;100212.00;10462444;28;20091;-69
2021/04/19 14:59:00;;;;;;;23.05;21.25;;;;;;;14.09;49.49;100208.81;10445254;28;20518;-69
2021/04/19 15:04:02;;;;;;;22.10;20.52;;;;;;;14.27;48.95;100201.03;10463576;28;20049;-69
2021/04/19 15:09:06;;;;;;;20.30;18.77;;;;;;;14.17;50.10;100211.16;10470550;28;20045;-70
2021/04/19 15:14:07;;;;;;;22.45;20.67;;;;;;;14.17;50.80;100221.72;10473000;28;20383;-69
2021/04/19 15:19:08;;;;;;;22.58;20.70;;;;;;;13.88;50.38;100217.69;10470863;28;20048;-69
2021/04/19 15:24:10;;;;;;;21.42;19.52;;;;;;;13.79;51.26;100218.06;10452405;28;20453;-69
2021/04/19 15:29:11;;;;;;;21.60;19.67;;;;;;;13.44;51.36;100228.28;10470442;28;20131;-70
2021/04/19 15:34:13;;;;;;;21.48;19.88;;;;;;;13.48;51.78;100229.03;10469841;28;20040;-70
2021/04/19 15:39:15;;;;;;;21.50;19.35;;;;;;;13.24;52.50;100226.47;10471453;28;20044;-70
2021/04/19 15:44:18;;;;;;;21.45;19.80;;;;;;;13.16;53.28;100225.88;10471329;28;20045;-70
2021/04/19 15:49:19;;;;;;;19.30;17.80;;;;;;;13.17;52.85;100222.31;10452543;28;20049;-70
2021/04/19 15:54:21;;;;;;;21.80;20.05;;;;;;;13.08;53.03;100207.69;10451385;28;20380;-71
2021/04/19 15:59:22;;;;;;;20.55;18.65;;;;;;;13.34;53.57;100206.69;10472245;28;20052;-70
2021/04/19 16:04:23;;;;;;;19.25;17.70;;;;;;;13.42;52.25;100203.75;10469964;28;20108;-69
2021/04/19 16:09:25;;;;;;;18.23;16.92;;;;;;;13.29;52.55;100200.75;10468676;28;20041;-70
2021/04/19 16:14:26;;;;;;;20.42;18.63;;;;;;;13.35;53.17;100195.19;10467156;28;20037;-70
2021/04/19 16:19:28;;;;;;;22.08;20.30;;;;;;;13.08;53.99;100185.72;10467596;28;20048;-68
2021/04/19 16:24:31;;;;;;;22.58;20.75;;;;;;;13.00;55.07;100187.81;10467977;28;20195;-69
2021/04/19 16:29:32;;;;;;;23.17;21.38;;;;;;;12.86;55.74;100183.06;10451245;28;20053;-70
2021/04/19 16:34:33;;;;;;;22.70;21.20;;;;;;;12.98;55.74;100182.59;10466669;28;20440;-70
2021/04/19 16:39:35;;;;;;;25.42;23.35;;;;;;;12.68;56.88;100184.63;10451872;28;20055;-71
2021/04/19 16:44:36;;;;;;;26.02;24.25;;;;;;;12.54;57.17;100182.53;10449771;28;20037;-70
2021/04/19 16:49:38;;;;;;;26.45;24.25;;;;;;;12.49;57.29;100184.47;10467442;28;20056;-70
2021/04/19 16:54:39;;;;;;;22.73;20.80;;;;;;;12.32;57.17;100181.59;10448970;28;20099;-71
2021/04/19 16:59:40;;;;;;;22.80;21.00;;;;;;;12.26;57.65;100181.78;10467026;28;20045;-72
2021/04/19 17:04:43;;;;;;;22.90;20.85;;;;;;;12.29;57.20;100192.25;10470220;28;20120;-72
2021/04/19 17:09:44;;;;;;;21.65;20.05;;;;;;;12.33;56.73;100180.66;10450061;28;20495;-72
2021/04/19 17:14:47;;;;;;;20.55;18.95;;;;;;;12.00;57.03;100194.16;10468067;28;20068;-71
2021/04/19 17:19:49;;;;;;;20.33;18.83;;;;;;;12.02;57.22;100194.94;10450453;28;20059;-72
2021/04/19 17:24:50;;;;;;;23.95;21.80;;;;;;;11.87;58.15;100198.13;10466203;28;20068;-70
2021/04/19 17:29:51;;;;;;;22.42;20.83;;;;;;;11.76;58.92;100202.84;10448325;28;20513;-71
2021/04/19 17:34:53;;;;;;;26.25;23.80;;;;;;;11.57;60.09;100206.09;10464887;28;20487;-71
2021/04/19 17:39:54;;;;;;;24.27;22.20;;;;;;;11.66;59.88;100206.72;10446789;28;20068;-72
2021/04/19 17:44:55;;;;;;;25.30;22.88;;;;;;;11.51;60.69;100214.22;10447152;28;20064;-72
2021/04/19 17:49:56;;;;;;;24.60;22.63;;;;;;;11.37;61.30;100212.00;10463834;28;20045;-71
2021/04/19 17:55:09;;;;;;;24.67;22.83;;;;;;;11.14;61.71;100219.78;10541502;27;20347;-70
2021/04/19 18:00:12;;;;;;;22.23;20.65;;;;;;;11.01;62.23;100221.06;10538403;28;20052;-71
2021/04/19 18:05:13;;;;;;;23.45;21.75;;;;;;;10.94;62.18;100224.81;10519071;28;20139;-72
2021/04/19 18:10:16;;;;;;;23.60;21.90;;;;;;;10.91;62.13;100228.38;10503784;28;20043;-71
2021/04/19 18:15:37;;;;;;;22.92;21.23;;;;;;;10.91;62.62;100241.53;10536113;28;20397;-71
2021/04/19 18:20:38;;;;;;;26.65;24.08;;;;;;;11.06;61.83;100235.78;10540999;28;20044;-72
2021/04/19 18:25:39;;;;;;;23.77;21.92;;;;;;;10.94;62.12;100233.56;10540793;28;20052;-71
2021/04/19 18:30:42;;;;;;;22.27;20.40;;;;;;;10.92;62.15;100245.00;10542231;28;20038;-72
2021/04/19 18:35:44;;;;;;;24.23;22.13;;;;;;;10.76;62.41;100252.50;10542965;28;20045;-72
2021/04/19 18:40:46;;;;;;;23.58;21.77;;;;;;;10.65;63.16;100251.94;10541085;28;20425;-72
2021/04/19 18:45:47;;;;;;;24.27;22.30;;;;;;;10.58;63.07;100249.50;10541653;28;20083;-71
2021/04/19 18:50:49;;;;;;;23.38;21.27;;;;;;;10.50;63.38;100253.25;10539833;28;20059;-72
2021/04/19 18:55:50;;;;;;;23.45;21.67;;;;;;;10.41;63.56;100250.88;10540932;28;20047;-71
2021/04/19 19:00:52;;;;;;;23.45;21.55;;;;;;;10.18;64.26;100254.06;10541281;28;20048;-73
2021/04/19 19:05:53;;;;;;;23.02;21.17;;;;;;;9.86;64.89;100261.03;10514825;28;20049;-73
2021/04/19 19:10:55;;;;;;;22.58;20.38;;;;;;;9.83;65.32;100258.50;10510415;28;20075;-71
2021/04/19 19:15:56;;;;;;;24.13;22.17;;;;;;;9.88;65.53;100266.25;10511720;28;20043;-72
2021/04/19 19:20:58;;;;;;;22.27;20.48;;;;;;;9.86;65.41;100268.91;10512259;28;20041;-72
2021/04/19 19:26:00;;;;;;;22.85;21.05;;;;;;;9.76;65.56;100260.41;10511359;28;20402;-72
2021/04/19 19:31:04;;;;;;;24.15;22.10;;;;;;;9.63;66.06;100264.22;10509421;28;20522;-71
2021/04/19 19:36:07;;;;;;;27.85;24.90;;;;;;;9.58;66.47;100256.47;10511400;28;20158;-72
2021/04/19 19:41:08;;;;;;;27.17;24.55;;;;;;;9.65;66.38;100257.19;10510735;28;20037;-71
2021/04/19 19:46:10;;;;;;;23.08;21.38;;;;;;;9.70;66.24;100259.69;10510379;28;20408;-72
2021/04/19 19:51:11;;;;;;;24.10;22.27;;;;;;;9.72;65.79;100250.00;10510363;28;20059;-71
2021/04/19 19:56:12;;;;;;;24.98;23.08;;;;;;;9.44;66.76;100248.06;10510702;28;20056;-71
2021/04/19 20:01:14;;;;;;;25.90;23.80;;;;;;;9.66;66.40;100239.66;10509385;28;20097;-71
2021/04/19 20:06:16;;;;;;;25.15;23.15;;;;;;;9.49;66.79;100238.31;10510112;28;20052;-72
2021/04/19 20:11:17;;;;;;;25.73;23.65;;;;;;;9.43;67.05;100227.97;10509213;28;20083;-70
2021/04/19 20:16:19;;;;;;;25.33;23.00;;;;;;;9.59;66.49;100221.44;10507863;28;20057;-71
2021/04/19 20:21:20;;;;;;;24.70;22.65;;;;;;;9.66;66.03;100214.28;10508439;28;20398;-71
2021/04/19 20:26:21;;;;;;;22.80;21.05;;;;;;;9.49;65.97;100205.97;10508153;28;20367;-71
2021/04/19 20:31:22;;;;;;;22.85;21.02;;;;;;;9.58;66.23;100206.59;10508509;28;20048;-72
2021/04/19 20:36:24;;;;;;;24.08;22.13;;;;;;;9.35;67.07;100204.53;10508798;28;20083;-72
2021/04/19 20:41:25;;;;;;;23.27;21.55;;;;;;;9.39;67.06;100202.72;10508732;28;20071;-72
2021/04/19 20:46:27;;;;;;;22.83;21.15;;;;;;;9.49;66.76;100209.44;10509722;28;20040;-72
2021/04/19 20:51:28;;;;;;;23.13;21.00;;;;;;;9.33;67.15;100211.56;10507860;28;20048;-72
2021/04/19 20:56:30;;;;;;;22.02;20.08;;;;;;;9.33;67.21;100203.69;10490825;28;20187;-71
2021/04/19 21:01:31;;;;;;;23.90;22.13;;;;;;;9.40;67.04;100209.66;10507370;28;20036;-71
2021/04/19 21:06:33;;;;;;;24.48;22.38;;;;;;;9.31;67.43;100221.25;10507145;28;20052;-72
2021/04/19 21:11:34;;;;;;;26.90;24.30;;;;;;;9.08;68.01;100223.56;10506690;28;20037;-71
2021/04/19 21:16:35;;;;;;;25.85;23.80;;;;;;;9.03;68.38;100230.63;10506858;28;20048;-71
2021/04/19 21:21:37;;;;;;;29.08;26.48;;;;;;;9.04;68.38;100222.75;10506026;28;20052;-71
2021/04/19 21:26:38;;;;;;;26.98;24.83;;;;;;;9.50;67.42;100219.03;10506228;28;20445;-72
2021/04/19 21:31:39;;;;;;;28.02;25.42;;;;;;;9.63;67.09;100213.50;10505836;28;20058;-72
2021/04/19 21:36:41;;;;;;;25.73;23.65;;;;;;;9.51;67.45;100215.50;10504924;28;20513;-71
2021/04/19 21:41:43;;;;;;;25.98;23.52;;;;;;;9.47;67.51;100223.50;10506393;28;20052;-72
2021/04/19 21:46:45;;;;;;;25.50;23.35;;;;;;;9.24;68.23;100224.03;10504249;28;20053;-71
2021/04/19 21:51:46;;;;;;;27.30;25.27;;;;;;;9.34;68.36;100226.44;10510999;28;20498;-71
2021/04/19 21:56:48;;;;;;;27.23;24.65;;;;;;;9.19;68.56;100232.00;10507253;28;20406;-72
2021/04/19 22:01:49;;;;;;;28.17;25.73;;;;;;;9.20;68.80;100257.34;10510004;28;20110;-71
2021/04/19 22:06:51;;;;;;;33.95;27.90;;;;;;;9.44;70.61;100257.69;10504918;28;20114;-69
2021/04/19 22:11:52;;;;;;;37.53;28.23;;;;;;;9.14;72.90;100230.41;10503205;28;20449;-68
2021/04/19 22:16:53;;;;;;;34.25;30.65;;;;;;;8.81;73.73;100220.63;10504033;28;20049;-68
2021/04/19 22:21:55;;;;;;;36.60;32.67;;;;;;;8.70;75.07;100214.75;10504912;28;20041;-68
2021/04/19 22:26:56;;;;;;;35.42;31.55;;;;;;;8.91;74.19;100208.19;10486811;28;20059;-70
2021/04/19 22:32:00;;;;;;;34.03;30.73;;;;;;;8.78;74.63;100198.88;10505159;28;20071;-68
2021/04/19 22:37:01;;;;;;;36.15;32.13;;;;;;;8.93;74.79;100193.28;10504106;28;20513;-66
2021/04/19 22:42:02;;;;;;;39.63;34.08;;;;;;;8.83;75.38;100199.63;10510625;28;20108;-68
2021/04/19 22:47:04;;;;;;;41.47;34.72;;;;;;;8.99;75.86;100197.53;10511330;28;20056;-69
2021/04/19 22:52:06;;;;;;;33.25;30.05;;;;;;;9.01;75.61;100193.97;10510740;28;20476;-67
2021/04/19 22:57:07;;;;;;;48.38;37.83;;;;;;;8.58;77.50;100200.13;10509755;28;20040;-68